createdAt,value
2019-01-17T13:01:42.508Z,4.00
2019-01-17T13:04:11.746Z,3.90
2019-01-17T13:06:41.358Z,4.00
2019-01-17T13:09:10.537Z,4.00
2019-01-17T13:11:41.442Z,3.90
2019-01-17T13:14:10.527Z,3.90
2019-01-17T13:16:39.635Z,3.90
2019-01-17T13:19:09.722Z,3.90
2019-01-17T13:21:39.180Z,3.90
2019-01-17T13:24:08.938Z,3.90
2019-01-17T13:26:37.967Z,3.80
2019-01-17T13:29:07.338Z,3.90
2019-01-17T13:31:36.437Z,3.80
2019-01-17T13:34:06.068Z,3.80
2019-01-17T13:36:40.274Z,3.80
2019-01-17T13:39:07.845Z,3.90
2019-01-17T13:41:37.044Z,3.90
2019-01-17T13:44:06.242Z,3.90
2019-01-17T13:46:35.355Z,4.00
2019-01-17T13:49:04.855Z,3.90
2019-01-17T13:51:34.088Z,4.00
2019-01-17T13:54:03.342Z,4.00
2019-01-17T13:56:32.617Z,4.00
2019-01-17T13:59:02.401Z,4.00
2019-01-17T14:01:31.423Z,4.00
2019-01-17T14:04:00.615Z,3.90
2019-01-17T14:06:30.146Z,4.00
2019-01-17T14:09:00.761Z,4.00
2019-01-17T14:11:29.795Z,3.80
2019-01-17T14:13:59.668Z,3.20
2019-01-17T14:16:30.643Z,2.60
2019-01-17T14:18:59.863Z,2.20
2019-01-17T14:21:31.718Z,1.90
2019-01-17T14:24:00.224Z,1.70
2019-01-17T14:26:29.319Z,1.60
2019-01-17T14:29:00.972Z,1.50
2019-01-17T14:31:30.050Z,1.30
2019-01-17T14:33:59.182Z,1.20
2019-01-17T14:36:30.941Z,1.20
2019-01-17T14:39:01.449Z,1.00
2019-01-17T14:41:33.998Z,1.00
2019-01-17T14:44:03.488Z,1.00
2019-01-17T14:46:35.611Z,1.00
2019-01-17T14:49:04.702Z,1.00
2019-01-17T14:51:34.833Z,1.00
2019-01-17T14:54:03.909Z,1.10
2019-01-17T14:56:36.818Z,1.10
2019-01-17T14:59:06.252Z,1.10
2019-01-17T15:01:35.347Z,1.20
2019-01-17T15:04:08.849Z,1.20
2019-01-17T15:06:38.192Z,1.20
2019-01-17T15:09:09.539Z,1.20
2019-01-17T15:11:38.701Z,1.20
2019-01-17T15:14:07.843Z,1.20
2019-01-17T15:16:37.526Z,1.20
2019-01-17T15:19:06.732Z,1.20
2019-01-17T15:21:35.961Z,1.20
2019-01-17T15:24:05.377Z,1.10
2019-01-17T15:26:35.591Z,1.10
2019-01-17T15:29:05.159Z,1.10
2019-01-17T15:31:34.400Z,1.10
2019-01-17T15:34:03.565Z,1.10
2019-01-17T15:36:32.699Z,1.10
2019-01-17T15:39:01.775Z,1.10
2019-01-17T15:41:30.908Z,1.10
2019-01-17T15:43:59.911Z,1.10
2019-01-17T15:46:29.017Z,1.00
2019-01-17T15:48:58.189Z,1.00
2019-01-17T15:51:31.665Z,1.00
2019-01-17T15:54:00.741Z,1.00
2019-01-17T15:56:29.833Z,1.00
2019-01-17T15:58:58.924Z,1.00
2019-01-17T16:01:27.987Z,1.00
2019-01-17T16:03:59.431Z,1.00
2019-01-17T16:06:31.028Z,1.00
2019-01-17T16:09:00.167Z,1.00
2019-01-17T16:11:29.649Z,1.00
2019-01-17T16:14:00.985Z,1.00
2019-01-17T16:16:30.016Z,1.00
2019-01-17T16:19:09.944Z,1.00
2019-01-17T16:21:41.675Z,1.00
2019-01-17T16:24:11.022Z,1.00
2019-01-17T16:26:40.602Z,1.00
2019-01-17T16:29:11.480Z,1.00
2019-01-17T16:31:41.143Z,1.00
2019-01-17T16:34:10.795Z,1.00
2019-01-17T16:36:40.173Z,0.90
2019-01-17T16:39:11.111Z,0.90
2019-01-17T16:41:40.445Z,0.90
2019-01-17T16:44:09.674Z,0.80
2019-01-17T16:46:38.964Z,0.80
2019-01-17T16:49:08.029Z,0.70
2019-01-17T16:51:37.542Z,0.70
2019-01-17T16:54:10.055Z,0.70
2019-01-17T16:56:39.629Z,0.70
2019-01-17T16:59:11.072Z,0.60
2019-01-17T17:01:40.494Z,0.60
2019-01-17T17:04:09.559Z,0.60
2019-01-17T17:06:40.360Z,0.50
2019-01-17T17:09:09.782Z,0.50
2019-01-17T17:11:38.893Z,0.50
2019-01-17T17:14:08.503Z,0.50
2019-01-17T17:16:37.558Z,0.40
2019-01-17T17:19:06.717Z,0.40
2019-01-17T17:21:36.453Z,0.40
2019-01-17T17:24:06.015Z,0.40
2019-01-17T17:26:35.284Z,0.40
2019-01-17T17:29:05.200Z,0.40
2019-01-17T17:31:34.821Z,0.40
2019-01-17T17:34:04.219Z,0.30
2019-01-17T17:36:33.403Z,0.30
2019-01-17T17:39:02.584Z,0.30
2019-01-17T17:41:32.165Z,0.30
2019-01-17T17:44:01.411Z,0.30
2019-01-17T17:46:30.656Z,0.30
2019-01-17T17:48:59.810Z,0.20
2019-01-17T17:51:29.672Z,0.20
2019-01-17T17:53:58.722Z,0.20
2019-01-17T17:56:27.920Z,0.20
2019-01-17T17:58:57.393Z,0.20
2019-01-17T18:01:33.121Z,0.20
2019-01-17T18:04:02.262Z,0.10
2019-01-17T18:06:31.468Z,0.10
2019-01-17T18:09:01.826Z,0.10
2019-01-17T18:11:31.218Z,0.10
2019-01-17T18:14:00.946Z,0.10
2019-01-17T18:16:31.355Z,0.10
2019-01-17T18:19:00.828Z,0.10
2019-01-17T18:21:29.932Z,0.10
2019-01-17T18:23:58.935Z,0.10
2019-01-17T18:26:28.047Z,0.00
2019-01-17T18:28:58.353Z,0.00
2019-01-17T18:31:29.142Z,0.00
2019-01-17T18:33:58.289Z,0.00
2019-01-17T18:36:27.580Z,0.00
2019-01-17T18:38:59.636Z,0.00
2019-01-17T18:41:28.789Z,0.00
2019-01-17T18:43:57.950Z,0.00
2019-01-17T18:46:28.133Z,-0.10
2019-01-17T18:48:57.814Z,-0.10
2019-01-17T18:51:27.024Z,-0.10
2019-01-17T18:53:56.867Z,-0.20
2019-01-17T18:56:27.671Z,-0.20
2019-01-17T18:58:57.943Z,-0.20
2019-01-17T19:01:27.295Z,-0.20
2019-01-17T19:03:57.514Z,-0.30
2019-01-17T19:06:26.806Z,-0.20
2019-01-17T19:08:56.283Z,-0.20
2019-01-17T19:11:25.409Z,-0.20
2019-01-17T19:13:54.961Z,-0.30
2019-01-17T19:16:24.729Z,-0.30
2019-01-17T19:18:55.262Z,-0.30
2019-01-17T19:21:24.354Z,-0.30
2019-01-17T19:23:54.165Z,-0.30
2019-01-17T19:26:24.089Z,-0.30
2019-01-17T19:28:53.239Z,-0.30
2019-01-17T19:31:22.785Z,-0.30
2019-01-17T19:33:51.828Z,-0.30
2019-01-17T19:36:21.451Z,-0.30
2019-01-17T19:38:51.877Z,-0.40
2019-01-17T19:41:23.054Z,-0.40
2019-01-17T19:43:52.393Z,-0.40
2019-01-17T19:46:22.857Z,-0.40
2019-01-17T19:48:55.753Z,-0.40
2019-01-17T19:51:24.853Z,-0.40
2019-01-17T19:53:54.567Z,-0.40
2019-01-17T19:56:24.014Z,-0.40
2019-01-17T19:58:53.252Z,-0.50
2019-01-17T20:01:22.305Z,-0.50
2019-01-17T20:03:54.730Z,-0.50
2019-01-17T20:06:23.760Z,-0.50
2019-01-17T20:08:53.042Z,-0.50
2019-01-17T20:11:22.856Z,-0.50
2019-01-17T20:13:52.960Z,-0.50
2019-01-17T20:16:22.414Z,-0.50
2019-01-17T20:18:51.484Z,-0.50
2019-01-17T20:21:22.298Z,-0.50
2019-01-17T20:23:52.788Z,-0.50
2019-01-17T20:26:23.365Z,-0.60
2019-01-17T20:28:52.742Z,-0.60
2019-01-17T20:31:24.438Z,-0.60
2019-01-17T20:33:54.129Z,-0.60
2019-01-17T20:36:23.218Z,-0.60
2019-01-17T20:38:54.317Z,-0.60
2019-01-17T20:41:23.405Z,-0.60
2019-01-17T20:43:52.623Z,-0.50
2019-01-17T20:46:24.118Z,-0.50
2019-01-17T20:48:55.770Z,-0.50
2019-01-17T20:51:25.174Z,-0.50
2019-01-17T20:53:54.318Z,-0.50
2019-01-17T20:56:23.342Z,-0.50
2019-01-17T20:58:54.306Z,-0.50
2019-01-17T21:02:00.819Z,-0.40
2019-01-17T21:04:32.368Z,-0.50
2019-01-17T21:07:05.642Z,-0.50
2019-01-17T21:09:32.551Z,-0.50
2019-01-17T21:12:01.630Z,-0.50
2019-01-17T21:14:30.802Z,-0.50
2019-01-17T21:16:59.816Z,-0.50
2019-01-17T21:19:29.019Z,-0.50
2019-01-17T21:21:58.193Z,-0.50
2019-01-17T21:24:27.605Z,-0.50
2019-01-17T21:26:58.297Z,-0.50
2019-01-17T21:29:27.687Z,-0.50
2019-01-17T21:31:57.543Z,-0.50
2019-01-17T21:34:28.584Z,-0.50
2019-01-17T21:37:00.162Z,-0.50
2019-01-17T21:39:29.949Z,-0.60
2019-01-17T21:41:59.114Z,-0.60
2019-01-17T21:44:28.471Z,-0.60
2019-01-17T21:46:57.761Z,-0.60
2019-01-17T21:49:28.374Z,-0.50
2019-01-17T21:51:57.423Z,-0.60
2019-01-17T21:54:26.492Z,-0.60
2019-01-17T21:56:57.666Z,-0.50
2019-01-17T21:59:26.827Z,-0.50
2019-01-17T22:01:55.897Z,-0.60
2019-01-17T22:04:26.557Z,-0.60
2019-01-17T22:06:55.720Z,-0.60
2019-01-17T22:09:24.778Z,-0.60
2019-01-17T22:11:54.240Z,-0.60
2019-01-17T22:14:23.433Z,-0.60
2019-01-17T22:16:52.814Z,-0.60
2019-01-17T22:19:22.093Z,-0.60
2019-01-17T22:21:51.945Z,-0.60
2019-01-17T22:24:21.903Z,-0.60
2019-01-17T22:26:51.355Z,-0.60
2019-01-17T22:29:20.531Z,-0.70
2019-01-17T22:31:49.579Z,-0.70
2019-01-17T22:34:18.790Z,-0.60
2019-01-17T22:36:48.000Z,-0.70
2019-01-17T22:39:17.350Z,-0.70
2019-01-17T22:41:46.862Z,-0.70
2019-01-17T22:44:16.055Z,-0.70
2019-01-17T22:46:45.070Z,-0.70
2019-01-17T22:49:14.160Z,-0.70
2019-01-17T22:51:43.214Z,-0.70
2019-01-17T22:54:12.499Z,-0.70
2019-01-17T22:56:41.931Z,-0.80
2019-01-17T22:59:11.125Z,-0.70
2019-01-17T23:01:40.723Z,-0.80
2019-01-17T23:04:09.766Z,-0.80
2019-01-17T23:06:38.804Z,-0.80
2019-01-17T23:09:08.706Z,-0.90
2019-01-17T23:11:37.778Z,-0.90
2019-01-17T23:14:07.242Z,-0.90
2019-01-17T23:16:36.397Z,-0.90
2019-01-17T23:19:06.254Z,-0.90
2019-01-17T23:21:35.351Z,-1.00
2019-01-17T23:24:05.515Z,-1.00
2019-01-17T23:26:34.598Z,-0.90
2019-01-17T23:29:03.847Z,-0.90
2019-01-17T23:31:32.929Z,-0.90
2019-01-17T23:34:02.352Z,-0.90
2019-01-17T23:36:31.998Z,-1.00
2019-01-17T23:39:01.053Z,-1.00
2019-01-17T23:41:30.124Z,-1.00
2019-01-17T23:43:59.235Z,-1.00
2019-01-17T23:46:28.643Z,-1.00
2019-01-17T23:48:57.730Z,-1.00
2019-01-17T23:51:27.616Z,-1.00
2019-01-17T23:53:57.430Z,-1.00
2019-01-17T23:56:26.494Z,-1.00
2019-01-17T23:58:58.459Z,-1.00
